Terminal Aerodrome Forecast
Issued by NWS

Home | Current Version | Previous Version | Graphics & Text | Print | Product List | Glossary On
Versions: 1 2 3 4 5 6 7 8 9 10 11 12 13 14 15
388
FTUS43 KMPX 251946 AAA
TAFRWF
TAF AMD
KRWF 251946Z 2520/2618 28010KT P6SM BKN040
     FM252100 26011KT P6SM BKN050
     FM260000 22010KT P6SM OVC090
     FM261200 26010KT P6SM OVC150
     FM261600 28011KT P6SM SCT150=

USA.gov is the U.S. government's official web portal to all federal, state and local government web resources and services.